Time;durP1;ratioP1;P1;durP2;ratioP2;P2;SDS_P1;SDS_P2;PMS_P1;PMS_P2;Temp;Humidity;BMP_temperature;BMP_pressure;BME280_temperature;BME280_humidity;BME280_pressure;Samples;Min_cycle;Max_cycle;Signal;HPM_P1;HPM_P2
2022/09/24 00:01:30;;;;;;;2.60;2.30;;;13.40;99.90;;;;;;5085537;28;20066;-80
2022/09/24 00:04:02;;;;;;;2.72;2.28;;;13.20;99.90;;;;;;5074746;28;20111;-80
2022/09/24 00:06:29;;;;;;;2.42;2.22;;;13.20;99.90;;;;;;5070174;28;20040;-80
2022/09/24 00:08:56;;;;;;;2.70;2.10;;;13.20;99.90;;;;;;5070165;28;20499;-75
2022/09/24 00:11:27;;;;;;;2.88;2.30;;;13.30;99.90;;;;;;5072093;28;20051;-75
2022/09/24 00:13:54;;;;;;;2.20;1.90;;;13.20;99.90;;;;;;5070418;28;20071;-75
2022/09/24 00:16:22;;;;;;;2.97;2.67;;;13.50;99.90;;;;;;5057878;28;20039;-75
2022/09/24 00:18:48;;;;;;;3.53;3.20;;;13.40;99.90;;;;;;5057623;28;20040;-75
2022/09/24 00:21:14;;;;;;;;;;;13.20;99.90;;;;;;5054536;28;20036;-74
2022/09/24 00:23:39;;;;;;;4.32;3.35;;;13.50;99.90;;;;;;5072575;28;19947;-74
2022/09/24 00:28:51;;;;;;;4.43;3.58;;;13.50;99.90;;;;;;5086179;28;20059;-75
2022/09/24 00:31:17;;;;;;;4.03;3.63;;;13.50;99.90;;;;;;5049581;28;20102;-76
2022/09/24 00:33:43;;;;;;;3.88;3.47;;;13.50;99.90;;;;;;5071691;28;20062;-75
2022/09/24 00:36:09;;;;;;;4.25;3.58;;;13.30;99.90;;;;;;5056246;28;22642;-74
2022/09/24 00:38:35;;;;;;;4.22;3.50;;;13.30;99.90;;;;;;5054589;28;20036;-75
2022/09/24 00:41:02;;;;;;;4.30;3.90;;;13.30;99.90;;;;;;5059057;28;20036;-75
2022/09/24 00:43:33;;;;;;;3.90;3.50;;;13.50;99.90;;;;;;5060784;28;20093;-74
2022/09/24 00:46:32;;;;;;;3.83;3.42;;;13.40;99.90;;;;;;5054872;28;20071;-75
2022/09/24 00:49:09;;;;;;;3.30;2.83;;;13.20;99.90;;;;;;5071623;28;20040;-75
2022/09/24 00:51:35;;;;;;;3.30;3.00;;;13.20;99.90;;;;;;5074063;28;20110;-75
2022/09/24 00:54:07;;;;;;;3.85;3.42;;;13.50;99.90;;;;;;5078284;28;20476;-75
2022/09/24 00:56:36;;;;;;;4.28;3.40;;;13.40;99.90;;;;;;5059626;28;20106;-75
2022/09/24 00:59:05;;;;;;;3.35;3.05;;;13.20;99.90;;;;;;5070054;28;20147;-75
2022/09/24 01:01:31;;;;;;;4.35;3.85;;;13.20;99.90;;;;;;5058417;28;20044;-74
2022/09/24 01:03:59;;;;;;;4.40;4.00;;;13.50;99.90;;;;;;5072779;28;20042;-75
2022/09/24 01:06:25;;;;;;;4.07;3.50;;;13.60;99.90;;;;;;5052228;28;20040;-75
2022/09/24 01:08:53;;;;;;;4.07;3.35;;;13.20;99.90;;;;;;5070514;28;20036;-75
2022/09/24 01:11:25;;;;;;;4.85;3.97;;;13.30;99.90;;;;;;5055074;28;20060;-75
2022/09/24 01:14:03;;;;;;;5.20;4.40;;;13.60;99.90;;;;;;5089919;28;20032;-75
2022/09/24 01:16:38;;;;;;;4.35;3.95;;;13.60;99.90;;;;;;5075285;28;20055;-75
2022/09/24 01:19:17;;;;;;;4.18;3.60;;;13.20;99.90;;;;;;5068074;28;20047;-73
2022/09/24 01:22:16;;;;;;;4.28;3.67;;;13.60;99.90;;;;;;5073945;28;20045;-79
2022/09/24 01:24:50;;;;;;;4.35;3.60;;;13.70;99.90;;;;;;5078785;28;20049;-79
2022/09/24 01:27:21;;;;;;;4.78;3.78;;;13.30;99.90;;;;;;5059323;28;20529;-78
2022/09/24 01:30:00;;;;;;;3.97;3.58;;;13.40;99.90;;;;;;5071408;28;20119;-78
2022/09/24 01:32:54;;;;;;;4.60;4.03;;;13.70;99.90;;;;;;5075879;28;20052;-79
2022/09/24 01:35:38;;;;;;;5.07;4.57;;;13.70;99.90;;;;;;5069639;28;20044;-76
2022/09/24 01:38:18;;;;;;;5.05;4.15;;;13.40;99.90;;;;;;5054963;28;20040;-76
2022/09/24 01:40:46;;;;;;;6.13;5.05;;;13.30;99.90;;;;;;5077181;28;20043;-77
2022/09/24 01:43:15;;;;;;;5.07;3.95;;;13.20;99.90;;;;;;5063645;28;20060;-77
2022/09/24 01:45:41;;;;;;;6.20;4.47;;;13.80;99.90;;;;;;5071239;28;20384;-76
2022/09/24 01:48:08;;;;;;;6.15;5.22;;;13.00;99.90;;;;;;5054245;28;20036;-77
2022/09/24 01:50:57;;;;;;;7.82;6.75;;;13.40;99.90;;;;;;5071670;28;20051;-77
2022/09/24 01:53:34;;;;;;;6.90;6.20;;;13.20;99.90;;;;;;5091826;28;20059;-77
2022/09/24 01:56:09;;;;;;;5.88;5.18;;;13.00;99.90;;;;;;5068487;28;20062;-77
2022/09/24 01:58:54;;;;;;;5.97;4.95;;;13.60;99.90;;;;;;5072379;28;20052;-77
2022/09/24 02:01:33;;;;;;;6.88;5.57;;;13.00;99.90;;;;;;5080698;28;20055;-77
2022/09/24 02:04:10;;;;;;;5.57;4.70;;;13.80;99.90;;;;;;5076109;28;20513;-77
2022/09/24 02:06:43;;;;;;;5.45;4.95;;;13.80;99.90;;;;;;5069033;28;20051;-77
2022/09/24 02:09:28;;;;;;;5.13;4.20;;;13.60;99.90;;;;;;5064119;28;20335;-77
2022/09/24 02:11:57;;;;;;;5.28;4.78;;;13.00;99.90;;;;;;5074058;28;20158;-77
2022/09/24 02:14:24;;;;;;;6.30;5.15;;;13.20;99.90;;;;;;5070922;28;20041;-77
2022/09/24 02:16:50;;;;;;;10.90;9.27;;;13.40;99.90;;;;;;5072655;28;20037;-78
2022/09/24 02:19:25;;;;;;;8.60;7.70;;;13.70;99.90;;;;;;5064672;28;20036;-78
2022/09/24 02:21:51;;;;;;;7.32;6.55;;;13.60;99.90;;;;;;5069768;28;20452;-78
2022/09/24 02:24:43;;;;;;;4.82;4.32;;;12.90;99.90;;;;;;5069233;28;20379;-78
2022/09/24 02:27:09;;;;;;;4.50;3.90;;;13.90;99.90;;;;;;5067466;28;20091;-77
2022/09/24 02:29:35;;;;;;;3.88;3.47;;;13.90;99.90;;;;;;5054734;28;20079;-77
2022/09/24 02:32:03;;;;;;;6.85;5.35;;;13.90;99.90;;;;;;5069623;28;20060;-77
2022/09/24 02:34:46;;;;;;;8.13;7.32;;;14.00;99.90;;;;;;5069322;28;20441;-76
2022/09/24 02:37:15;;;;;;;9.90;8.80;;;12.70;99.90;;;;;;5072123;28;20051;-76
2022/09/24 02:39:41;;;;;;;12.13;10.82;;;13.20;99.90;;;;;;5067427;28;20044;-76
2022/09/24 02:42:08;;;;;;;;;;;14.00;99.90;;;;;;5073601;28;20036;-76
2022/09/24 02:44:35;;;;;;;7.80;6.72;;;14.00;99.90;;;;;;5072645;28;19965;-76
2022/09/24 02:47:01;;;;;;;7.05;6.35;;;12.60;99.90;;;;;;5070596;28;20056;-75
2022/09/24 02:49:28;;;;;;;7.57;6.68;;;12.80;99.90;;;;;;5059323;28;20404;-76
2022/09/24 02:51:54;;;;;;;;;;;12.50;99.90;;;;;;5072661;28;20123;-77
2022/09/24 02:54:21;;;;;;;8.30;7.03;;;13.30;99.90;;;;;;5066885;28;19920;-77
2022/09/24 02:56:47;;;;;;;6.30;5.65;;;12.80;99.90;;;;;;5071393;28;20117;-78
2022/09/24 02:59:13;;;;;;;5.30;4.80;;;12.40;99.90;;;;;;5055733;28;20124;-78
2022/09/24 03:01:39;;;;;;;5.95;5.25;;;12.70;99.90;;;;;;5057946;28;20127;-77
2022/09/24 03:04:05;;;;;;;5.65;5.00;;;12.80;99.90;;;;;;5089251;28;20482;-77
2022/09/24 03:06:31;;;;;;;6.10;5.50;;;12.40;99.90;;;;;;5071761;28;20048;-77
2022/09/24 03:08:57;;;;;;;4.50;4.10;;;14.20;99.90;;;;;;5071537;28;20048;-77
2022/09/24 03:11:23;;;;;;;5.53;4.95;;;14.20;99.90;;;;;;5069219;28;20098;-77
2022/09/24 03:13:50;;;;;;;7.10;6.40;;;12.60;99.90;;;;;;5071377;28;20052;-77
2022/09/24 03:16:17;;;;;;;6.95;6.22;;;14.20;99.90;;;;;;5066824;28;20491;-76
2022/09/24 03:18:43;;;;;;;5.22;4.72;;;13.50;99.90;;;;;;5067387;28;20044;-76
2022/09/24 03:21:13;;;;;;;4.20;3.80;;;12.40;99.90;;;;;;5070036;28;20044;-77
2022/09/24 03:23:40;;;;;;;4.07;3.67;;;12.50;99.90;;;;;;5069075;28;20219;-77
2022/09/24 03:26:07;;;;;;;3.92;3.40;;;14.10;99.90;;;;;;5068315;28;20036;-77
2022/09/24 03:28:32;;;;;;;3.10;2.80;;;14.00;99.90;;;;;;5071447;28;20431;-77
2022/09/24 03:31:01;;;;;;;4.32;3.90;;;14.00;99.90;;;;;;5051662;28;20036;-78
2022/09/24 03:33:29;;;;;;;5.80;5.22;;;14.00;99.90;;;;;;5074840;28;20048;-78
2022/09/24 03:36:00;;;;;;;4.78;4.38;;;14.10;99.90;;;;;;5068274;28;20040;-78
2022/09/24 03:38:28;;;;;;;3.60;3.20;;;12.60;99.90;;;;;;5052474;28;20043;-78
2022/09/24 03:40:54;;;;;;;2.97;2.67;;;12.40;99.90;;;;;;5059147;28;20047;-78
2022/09/24 03:43:20;;;;;;;2.33;2.00;;;13.60;99.90;;;;;;5069644;28;20114;-79
2022/09/24 03:45:45;;;;;;;1.90;1.80;;;14.10;99.90;;;;;;5056817;28;20425;-78
2022/09/24 03:48:11;;;;;;;1.70;1.60;;;13.10;99.90;;;;;;5090294;28;20745;-79
2022/09/24 03:50:38;;;;;;;1.50;1.30;;;14.20;99.90;;;;;;5075667;28;20184;-78
2022/09/24 03:53:03;;;;;;;;;;;13.00;99.90;;;;;;5056579;28;20144;-79
2022/09/24 03:55:29;;;;;;;1.90;1.70;;;13.00;99.90;;;;;;5074198;28;20474;-80
2022/09/24 03:57:55;;;;;;;1.77;1.38;;;14.10;99.90;;;;;;5075043;28;20040;-79
2022/09/24 04:00:22;;;;;;;1.65;1.45;;;12.70;99.90;;;;;;5053021;28;20044;-79
2022/09/24 04:02:48;;;;;;;1.83;1.60;;;13.70;99.90;;;;;;5056296;28;20029;-79
2022/09/24 04:05:14;;;;;;;;;;;14.00;99.90;;;;;;5072560;28;20114;-79
2022/09/24 04:07:42;;;;;;;1.45;1.23;;;12.50;99.90;;;;;;5072864;28;20390;-80
2022/09/24 04:10:08;;;;;;;1.48;1.30;;;13.90;99.90;;;;;;5058929;28;20534;-79
2022/09/24 04:12:34;;;;;;;;;;;13.10;99.90;;;;;;5063846;28;20051;-79
2022/09/24 04:15:01;;;;;;;1.50;1.30;;;14.20;99.90;;;;;;5056279;28;19920;-80
2022/09/24 04:17:30;;;;;;;1.45;1.20;;;13.60;99.90;;;;;;5053167;28;20041;-81
2022/09/24 04:19:57;;;;;;;1.20;1.10;;;13.80;99.90;;;;;;5074453;28;20044;-80
2022/09/24 04:22:24;;;;;;;1.20;1.00;;;13.70;99.90;;;;;;5079351;28;20033;-80
2022/09/24 04:24:51;;;;;;;2.50;2.10;;;12.40;99.90;;;;;;5073973;28;20083;-79
2022/09/24 04:27:20;;;;;;;1.70;1.20;;;12.80;99.90;;;;;;5056934;28;20079;-80
2022/09/24 04:29:46;;;;;;;2.40;2.17;;;13.40;99.90;;;;;;5058227;28;20040;-80
2022/09/24 04:32:11;;;;;;;1.75;1.58;;;14.30;99.90;;;;;;5075133;28;20051;-80
2022/09/24 04:34:37;;;;;;;1.75;1.35;;;14.10;99.90;;;;;;5072565;28;20103;-79
2022/09/24 04:37:03;;;;;;;1.30;1.13;;;13.40;99.90;;;;;;5071112;28;20048;-80
2022/09/24 04:39:28;;;;;;;0.82;0.80;;;14.20;99.90;;;;;;5054467;28;20040;-79
2022/09/24 04:41:54;;;;;;;1.67;0.98;;;13.20;99.90;;;;;;5067513;28;20539;-79
2022/09/24 04:44:20;;;;;;;1.70;1.08;;;12.60;99.90;;;;;;5075138;28;20506;-80
2022/09/24 04:46:45;;;;;;;1.85;0.93;;;12.70;99.90;;;;;;5059847;28;20048;-79
2022/09/24 04:49:11;;;;;;;1.38;0.80;;;12.50;99.90;;;;;;5053283;28;20067;-79
2022/09/24 04:51:37;;;;;;;3.03;0.90;;;13.70;99.90;;;;;;5054937;28;20052;-80
2022/09/24 04:54:03;;;;;;;0.40;0.30;;;14.10;99.90;;;;;;5075066;28;20044;-80
2022/09/24 04:56:29;;;;;;;0.93;0.57;;;14.10;99.90;;;;;;5069475;28;20133;-80
2022/09/24 04:58:56;;;;;;;1.13;0.30;;;12.90;99.90;;;;;;5072903;28;20052;-80
2022/09/24 05:01:22;;;;;;;2.40;0.52;;;12.80;99.90;;;;;;5070915;28;20036;-80
2022/09/24 05:03:49;;;;;;;1.92;0.50;;;13.60;99.90;;;;;;5075073;28;20032;-80
2022/09/24 05:06:14;;;;;;;;;;;12.40;99.90;;;;;;5056184;28;20037;-82
2022/09/24 05:08:40;;;;;;;1.63;0.50;;;13.80;99.90;;;;;;5071460;28;20364;-80
2022/09/24 05:11:06;;;;;;;5.60;1.67;;;12.20;99.90;;;;;;5072431;28;20040;-80
2022/09/24 05:13:33;;;;;;;2.80;0.57;;;13.80;99.90;;;;;;5071961;28;20055;-80
2022/09/24 05:15:59;;;;;;;1.77;0.40;;;13.30;99.90;;;;;;5057901;28;20044;-79
2022/09/24 05:18:26;;;;;;;1.45;0.40;;;12.90;99.90;;;;;;5068139;28;20123;-80
2022/09/24 05:20:52;;;;;;;2.28;0.65;;;13.60;99.90;;;;;;5070551;28;20460;-79
2022/09/24 05:23:18;;;;;;;2.45;0.60;;;12.70;99.90;;;;;;5056524;28;20113;-80
2022/09/24 05:28:29;;;;;;;1.25;0.50;;;13.80;99.90;;;;;;5072432;28;20091;-80
2022/09/24 05:30:59;;;;;;;3.17;0.90;;;12.90;99.90;;;;;;5072868;28;20048;-82
2022/09/24 05:33:25;;;;;;;2.20;0.60;;;14.00;99.90;;;;;;5071130;28;20099;-79
2022/09/24 05:35:56;;;;;;;1.98;0.50;;;12.30;99.90;;;;;;5059328;28;20055;-79
2022/09/24 05:38:22;;;;;;;3.50;0.85;;;13.10;99.90;;;;;;5072540;28;20539;-79
2022/09/24 05:40:48;;;;;;;3.67;0.90;;;12.30;99.90;;;;;;5069035;28;20055;-78
2022/09/24 05:43:18;;;;;;;2.65;0.80;;;13.80;99.90;;;;;;5076685;28;20044;-80
2022/09/24 05:45:50;;;;;;;2.85;0.60;;;12.20;99.90;;;;;;5062126;28;20141;-80
2022/09/24 05:48:16;;;;;;;4.25;1.02;;;14.00;99.90;;;;;;5054550;28;20119;-81
2022/09/24 05:50:41;;;;;;;3.10;0.52;;;13.20;99.90;;;;;;5070609;28;20460;-82
2022/09/24 05:53:08;;;;;;;2.75;0.57;;;14.00;99.90;;;;;;5070134;28;20040;-81
2022/09/24 05:55:34;;;;;;;2.80;0.70;;;13.20;99.90;;;;;;5067076;28;20504;-80
2022/09/24 05:58:08;;;;;;;1.63;0.60;;;13.80;99.90;;;;;;5059878;28;20059;-78
2022/09/24 06:00:34;;;;;;;2.47;0.65;;;14.00;99.90;;;;;;5051515;28;20089;-79
2022/09/24 06:03:06;;;;;;;1.75;0.52;;;12.70;99.90;;;;;;5070120;28;20078;-79
2022/09/24 06:05:34;;;;;;;3.50;0.80;;;12.20;99.90;;;;;;5068768;28;20052;-79
2022/09/24 06:08:01;;;;;;;2.85;0.77;;;13.90;99.90;;;;;;5054798;28;20466;-79
2022/09/24 06:10:26;;;;;;;5.63;1.10;;;13.50;99.90;;;;;;5070471;28;20040;-79
2022/09/24 06:12:52;;;;;;;5.65;1.15;;;12.20;99.90;;;;;;5058918;28;20428;-80
2022/09/24 06:15:19;;;;;;;4.30;1.10;;;12.50;99.90;;;;;;5070503;28;20048;-79
2022/09/24 06:17:45;;;;;;;1.63;0.60;;;13.70;99.90;;;;;;5064714;28;20044;-79
2022/09/24 06:20:12;;;;;;;;;;;13.90;99.90;;;;;;5067837;28;20495;-79
2022/09/24 06:22:38;;;;;;;3.50;1.00;;;12.70;99.90;;;;;;5060632;28;19920;-79
2022/09/24 06:25:05;;;;;;;;;;;14.00;99.90;;;;;;5070652;28;20558;-79
2022/09/24 06:27:31;;;;;;;2.10;0.90;;;14.20;99.90;;;;;;5067108;28;19924;-80
2022/09/24 06:29:56;;;;;;;3.03;0.80;;;14.00;99.90;;;;;;5053574;28;20041;-81
2022/09/24 06:32:25;;;;;;;4.75;0.95;;;12.90;99.90;;;;;;5054682;28;20051;-80
2022/09/24 06:34:50;;;;;;;3.00;0.60;;;13.80;99.90;;;;;;5069019;28;20113;-81
2022/09/24 06:37:16;;;;;;;1.50;0.50;;;14.20;99.90;;;;;;5052491;28;20438;-86
2022/09/24 06:39:42;;;;;;;2.60;0.70;;;12.30;99.90;;;;;;5070360;28;20342;-79
2022/09/24 06:42:07;;;;;;;2.45;0.70;;;14.10;99.90;;;;;;5052734;28;20036;-81
2022/09/24 06:44:34;;;;;;;4.13;1.10;;;13.00;99.90;;;;;;5071564;28;20067;-81
2022/09/24 06:47:00;;;;;;;2.85;0.70;;;13.00;99.90;;;;;;5054559;28;20044;-81
2022/09/24 06:49:26;;;;;;;;;;;12.40;99.90;;;;;;5070020;28;20038;-82
2022/09/24 06:51:55;;;;;;;2.75;0.70;;;12.40;99.90;;;;;;5065955;28;20317;-82
2022/09/24 06:54:21;;;;;;;4.53;0.93;;;13.50;99.90;;;;;;5053233;28;20058;-82
2022/09/24 06:56:47;;;;;;;3.15;0.90;;;12.90;99.90;;;;;;5043548;28;20060;-82
2022/09/24 06:59:13;;;;;;;5.03;1.10;;;13.30;99.90;;;;;;5067249;28;20158;-81
2022/09/24 07:01:39;;;;;;;6.20;1.33;;;12.50;99.90;;;;;;5053349;28;20098;-81
2022/09/24 07:04:05;;;;;;;4.10;0.90;;;13.70;99.90;;;;;;5071022;28;20036;-81
2022/09/24 07:07:28;;;;;;;1.42;0.60;;;14.10;99.90;;;;;;5069030;28;20044;-81
2022/09/24 07:09:18;;;;;;;3.72;1.02;;;13.60;99.90;;;;;;5069045;28;20056;-81
2022/09/24 07:11:45;;;;;;;2.90;0.82;;;12.50;99.90;;;;;;5062056;28;20048;-81
2022/09/24 07:14:12;;;;;;;2.35;0.77;;;14.00;99.90;;;;;;5058844;28;20040;-81
2022/09/24 07:16:38;;;;;;;3.92;0.88;;;13.70;99.90;;;;;;5068236;28;20071;-79
2022/09/24 07:19:03;;;;;;;8.05;1.90;;;12.50;99.90;;;;;;5051670;28;20619;-81
2022/09/24 07:21:29;;;;;;;3.97;1.02;;;12.60;99.90;;;;;;5049846;28;20067;-81
2022/09/24 07:23:55;;;;;;;7.18;1.40;;;12.80;99.90;;;;;;5069188;28;20059;-82
2022/09/24 07:26:20;;;;;;;8.50;1.52;;;14.00;99.90;;;;;;5058519;28;20108;-81
2022/09/24 07:28:46;;;;;;;7.30;1.35;;;12.60;99.90;;;;;;5050266;28;20101;-82
2022/09/24 07:31:12;;;;;;;3.42;1.02;;;12.90;99.90;;;;;;5074976;28;20081;-83
2022/09/24 07:33:37;;;;;;;5.55;1.40;;;12.70;99.90;;;;;;5056186;28;20036;-83
2022/09/24 07:36:06;;;;;;;4.85;1.10;;;14.30;99.90;;;;;;5051746;28;20875;-84
2022/09/24 07:38:34;;;;;;;3.78;1.10;;;13.00;99.90;;;;;;5065663;28;20032;-84
2022/09/24 07:40:59;;;;;;;6.13;1.40;;;12.80;99.90;;;;;;5069528;28;20128;-83
2022/09/24 07:43:25;;;;;;;4.75;1.30;;;13.00;99.90;;;;;;5046165;28;20123;-83
2022/09/24 07:45:51;;;;;;;6.85;1.23;;;12.80;99.90;;;;;;5055069;28;20043;-84
2022/09/24 07:48:18;;;;;;;;;;;13.00;99.90;;;;;;5053330;28;20103;-85
2022/09/24 07:50:43;;;;;;;4.43;1.10;;;14.30;99.90;;;;;;5072843;28;19924;-85
2022/09/24 07:53:16;;;;;;;4.05;1.10;;;13.30;99.90;;;;;;5071900;28;20706;-85
2022/09/24 07:55:42;;;;;;;5.35;1.25;;;14.20;99.90;;;;;;5088805;28;20059;-83
2022/09/24 07:58:11;;;;;;;6.47;1.10;;;14.20;99.90;;;;;;5054952;28;20048;-84
2022/09/24 08:00:37;;;;;;;2.28;0.88;;;13.70;99.90;;;;;;5074582;28;20053;-84
2022/09/24 08:03:03;;;;;;;2.67;0.88;;;13.50;99.90;;;;;;5075437;28;20115;-84
2022/09/24 08:05:30;;;;;;;2.50;0.68;;;14.20;99.90;;;;;;5048146;28;20052;-82
2022/09/24 08:07:56;;;;;;;;;;;14.60;99.90;;;;;;5072109;28;20048;-83
2022/09/24 08:10:22;;;;;;;3.92;0.90;;;14.40;99.90;;;;;;5073951;28;20022;-83
2022/09/24 08:12:48;;;;;;;3.55;1.13;;;14.70;99.90;;;;;;5077841;28;20042;-84
2022/09/24 08:15:14;;;;;;;4.13;0.90;;;13.30;99.90;;;;;;5069948;28;20048;-83
2022/09/24 08:17:40;;;;;;;2.00;0.55;;;13.10;99.90;;;;;;5074348;28;20075;-84
2022/09/24 08:20:06;;;;;;;;;;;13.40;99.90;;;;;;5070443;28;20044;-82
2022/09/24 08:22:32;;;;;;;4.85;1.15;;;13.50;99.90;;;;;;5063213;28;19924;-82
2022/09/24 08:24:58;;;;;;;3.63;1.00;;;13.80;99.90;;;;;;5061780;28;20092;-82
2022/09/24 08:27:24;;;;;;;7.18;1.30;;;13.90;99.90;;;;;;5061393;28;20036;-84
2022/09/24 08:29:50;;;;;;;4.22;0.85;;;13.50;99.90;;;;;;5074052;28;20059;-82
2022/09/24 08:32:18;;;;;;;4.13;0.90;;;14.10;99.90;;;;;;5078121;28;20076;-85
2022/09/24 08:34:44;;;;;;;3.88;0.80;;;13.60;99.90;;;;;;5052656;28;20043;-84
2022/09/24 08:37:10;;;;;;;7.53;1.38;;;14.50;99.90;;;;;;5075746;28;20447;-84
2022/09/24 08:39:36;;;;;;;8.00;1.60;;;13.90;99.90;;;;;;5085085;28;20053;-83
2022/09/24 08:42:10;;;;;;;7.00;1.70;;;14.80;99.90;;;;;;5053214;28;20040;-83
2022/09/24 08:47:53;;;;;;;8.38;1.90;;;13.80;99.90;;;;;;5077112;28;20059;-84
2022/09/24 08:50:31;;;;;;;6.55;1.63;;;14.70;99.90;;;;;;5072889;28;20487;-85
2022/09/24 08:53:06;;;;;;;6.18;1.27;;;13.90;99.90;;;;;;5075563;28;20119;-84
2022/09/24 08:55:41;;;;;;;5.13;1.35;;;13.90;99.90;;;;;;5076211;28;20125;-85
2022/09/24 08:58:30;;;;;;;7.23;1.30;;;14.80;99.90;;;;;;5072806;28;20057;-83
2022/09/24 09:01:11;;;;;;;7.43;1.10;;;14.60;99.90;;;;;;5068508;28;20071;-82
2022/09/24 09:03:43;;;;;;;4.63;1.10;;;14.70;99.90;;;;;;5071791;28;20048;-82
2022/09/24 09:06:52;;;;;;;7.40;1.20;;;14.70;99.90;;;;;;5070397;28;20040;-83
2022/09/24 09:09:33;;;;;;;10.85;1.30;;;14.70;99.90;;;;;;5059902;28;20067;-81
2022/09/24 09:12:03;;;;;;;5.72;1.70;;;14.30;99.90;;;;;;5071069;28;20052;-82
2022/09/24 09:14:39;;;;;;;4.78;1.13;;;14.30;99.90;;;;;;5074431;28;20040;-82
2022/09/24 09:17:12;;;;;;;3.55;1.08;;;14.20;99.90;;;;;;5064482;28;20087;-82
2022/09/24 09:19:39;;;;;;;6.32;1.45;;;14.90;99.90;;;;;;5070744;28;20072;-84
2022/09/24 09:22:16;;;;;;;6.18;1.20;;;14.60;99.90;;;;;;5048214;28;20043;-82
2022/09/24 09:24:48;;;;;;;4.07;1.00;;;14.20;99.90;;;;;;5073269;28;20043;-82
2022/09/24 09:27:15;;;;;;;2.80;0.60;;;14.10;99.90;;;;;;5058117;28;20054;-82
2022/09/24 09:29:48;;;;;;;4.05;0.93;;;14.20;99.90;;;;;;5085802;28;20375;-80
2022/09/24 09:32:38;;;;;;;3.15;0.80;;;14.30;99.90;;;;;;5096067;28;20037;-82
2022/09/24 09:35:32;;;;;;;3.22;0.60;;;14.70;99.90;;;;;;5078672;28;20506;-82
2022/09/24 09:38:25;;;;;;;3.67;1.05;;;14.80;99.90;;;;;;5077669;28;20047;-83
2022/09/24 09:41:01;;;;;;;3.70;0.70;;;14.30;99.90;;;;;;5077435;28;20036;-81
2022/09/24 09:43:27;;;;;;;2.72;0.50;;;14.80;99.90;;;;;;5059650;28;20123;-82
2022/09/24 09:46:11;;;;;;;2.50;0.50;;;14.60;99.90;;;;;;5082034;28;20119;-84
2022/09/24 09:48:46;;;;;;;2.80;0.60;;;14.70;99.90;;;;;;5074422;28;20051;-83
2022/09/24 09:51:18;;;;;;;1.50;0.60;;;14.40;99.90;;;;;;5062465;28;20134;-82
2022/09/24 09:53:58;;;;;;;1.35;0.50;;;14.60;99.90;;;;;;5074665;28;20043;-82
2022/09/24 09:56:35;;;;;;;1.25;0.47;;;14.70;99.90;;;;;;5062115;28;20080;-82
2022/09/24 09:59:18;;;;;;;2.13;0.57;;;14.30;99.90;;;;;;5053148;28;20040;-83
2022/09/24 10:01:47;;;;;;;2.25;1.13;;;14.30;99.90;;;;;;5071621;28;20619;-83
2022/09/24 10:04:36;;;;;;;3.90;0.70;;;14.50;99.90;;;;;;5056251;28;20033;-82
2022/09/24 10:07:13;;;;;;;2.63;0.85;;;14.40;99.90;;;;;;5065065;28;20049;-83
2022/09/24 10:09:41;;;;;;;0.88;0.52;;;14.90;99.90;;;;;;5062519;28;20081;-83
2022/09/24 10:12:21;;;;;;;3.70;0.82;;;15.00;99.90;;;;;;5054975;28;20128;-84
2022/09/24 10:15:01;;;;;;;1.52;0.43;;;14.70;99.90;;;;;;5060644;28;20044;-82
2022/09/24 10:17:38;;;;;;;2.47;0.80;;;14.80;99.90;;;;;;5059944;28;20495;-83
2022/09/24 10:20:30;;;;;;;1.30;0.52;;;15.10;99.90;;;;;;5077931;28;20033;-83
2022/09/24 10:23:03;;;;;;;3.72;0.50;;;14.80;99.90;;;;;;5057141;28;20036;-83
2022/09/24 10:25:31;;;;;;;4.22;0.68;;;14.70;99.90;;;;;;5071502;28;20059;-83
2022/09/24 10:30:52;;;;;;;2.55;0.70;;;15.10;99.90;;;;;;5068414;28;20048;-83
2022/09/24 10:33:18;;;;;;;4.13;0.82;;;14.70;99.90;;;;;;5068683;28;20041;-83
2022/09/24 10:35:44;;;;;;;2.38;0.55;;;15.00;99.90;;;;;;5072655;28;20037;-83
2022/09/24 10:38:19;;;;;;;2.67;0.98;;;14.90;99.90;;;;;;5068494;28;20102;-83
2022/09/24 10:40:46;;;;;;;4.20;1.10;;;14.80;99.90;;;;;;5073124;28;20881;-82
2022/09/24 10:43:19;;;;;;;5.28;1.30;;;14.70;99.90;;;;;;5072482;28;20043;-82
2022/09/24 10:46:14;;;;;;;5.15;0.90;;;14.70;99.90;;;;;;5071067;28;20040;-83
2022/09/24 10:49:00;;;;;;;3.30;1.10;;;15.00;99.90;;;;;;5065556;28;20052;-82
2022/09/24 10:51:34;;;;;;;2.25;0.77;;;14.60;99.90;;;;;;5068545;28;20048;-82
2022/09/24 10:54:21;;;;;;;3.70;0.90;;;14.70;99.90;;;;;;5076095;28;20391;-82
2022/09/24 10:56:53;;;;;;;5.70;1.35;;;14.80;99.90;;;;;;5081105;28;20067;-82
2022/09/24 10:59:38;;;;;;;4.85;0.95;;;14.80;99.90;;;;;;5072091;28;20127;-81
2022/09/24 11:02:31;;;;;;;4.03;0.90;;;15.20;99.90;;;;;;5072977;28;20078;-81
2022/09/24 11:05:11;;;;;;;4.18;0.85;;;15.20;99.90;;;;;;5058826;28;20032;-84
2022/09/24 11:08:02;;;;;;;2.28;0.70;;;15.10;99.90;;;;;;5055251;28;20040;-83
2022/09/24 11:11:10;;;;;;;2.85;0.70;;;15.00;99.90;;;;;;5072316;28;20472;-84
2022/09/24 11:13:39;;;;;;;5.18;1.05;;;14.80;99.90;;;;;;5064303;28;20114;-83
2022/09/24 11:16:42;;;;;;;4.22;0.88;;;14.50;99.90;;;;;;5072684;28;20586;-82
2022/09/24 11:19:18;;;;;;;3.25;0.80;;;14.90;99.90;;;;;;5064707;28;20078;-83
2022/09/24 11:22:12;;;;;;;4.40;1.25;;;14.60;99.90;;;;;;5073651;28;20274;-82
2022/09/24 11:24:49;;;;;;;3.70;0.80;;;14.40;99.90;;;;;;5056671;28;20036;-83
2022/09/24 11:27:42;;;;;;;3.65;1.00;;;14.10;99.90;;;;;;5073882;28;20068;-82
2022/09/24 11:30:14;;;;;;;2.08;0.90;;;14.60;99.90;;;;;;5071183;28;20074;-83
2022/09/24 11:32:43;;;;;;;2.90;0.80;;;14.10;99.90;;;;;;5071269;28;20041;-83
2022/09/24 11:35:42;;;;;;;3.35;0.80;;;14.20;99.90;;;;;;5075522;28;20036;-84
2022/09/24 11:38:29;;;;;;;3.63;0.80;;;14.20;99.90;;;;;;5074698;28;20108;-83
2022/09/24 11:41:19;;;;;;;2.08;0.60;;;14.20;99.90;;;;;;5057701;28;20463;-82
2022/09/24 11:43:59;;;;;;;4.72;0.70;;;14.30;99.90;;;;;;5073437;28;20044;-83
2022/09/24 11:46:46;;;;;;;2.92;0.73;;;14.20;99.90;;;;;;5071286;28;20491;-82
2022/09/24 11:49:35;;;;;;;6.30;0.80;;;14.60;99.90;;;;;;5074328;28;20129;-80
2022/09/24 11:52:21;;;;;;;2.55;0.60;;;14.30;99.90;;;;;;5054848;28;20048;-82
2022/09/24 11:55:08;;;;;;;4.72;0.70;;;14.40;99.90;;;;;;5070873;28;20055;-81
2022/09/24 11:57:42;;;;;;;4.18;1.05;;;14.40;99.90;;;;;;5058437;28;21040;-82
2022/09/24 12:00:13;;;;;;;3.10;0.47;;;14.60;99.90;;;;;;5074286;28;20045;-82
2022/09/24 12:02:58;;;;;;;2.40;0.60;;;14.60;99.90;;;;;;5075791;28;20044;-82
2022/09/24 12:05:45;;;;;;;1.85;0.50;;;14.50;99.90;;;;;;5058093;28;20048;-81
2022/09/24 12:08:17;;;;;;;3.83;0.80;;;14.80;99.90;;;;;;5071624;28;20453;-81
2022/09/24 12:11:14;;;;;;;2.03;0.60;;;14.60;99.90;;;;;;5074477;28;20079;-82
2022/09/24 12:13:55;;;;;;;1.80;0.50;;;14.80;99.90;;;;;;5077851;28;20135;-81
2022/09/24 12:16:32;;;;;;;2.88;0.60;;;14.70;99.90;;;;;;5073391;28;20040;-81
2022/09/24 12:19:15;;;;;;;2.45;0.60;;;14.80;99.90;;;;;;5093828;28;20040;-81
2022/09/24 12:21:44;;;;;;;1.70;0.50;;;14.80;99.90;;;;;;5063725;28;20399;-80
2022/09/24 12:24:21;;;;;;;2.80;0.70;;;14.80;99.90;;;;;;5079837;28;20050;-81
2022/09/24 12:26:48;;;;;;;5.22;0.60;;;14.80;99.90;;;;;;5056201;28;20101;-80
2022/09/24 12:32:53;;;;;;;2.20;0.45;;;14.60;99.90;;;;;;5083116;28;20044;-80
2022/09/24 12:35:52;;;;;;;1.50;0.50;;;14.70;99.90;;;;;;5053908;28;20103;-79
2022/09/24 12:38:24;;;;;;;3.92;0.60;;;14.60;99.90;;;;;;5052137;28;20454;-81
2022/09/24 12:41:15;;;;;;;3.03;0.60;;;14.70;99.90;;;;;;5074975;28;20040;-81
2022/09/24 12:43:55;;;;;;;1.98;0.43;;;14.50;99.90;;;;;;5075575;28;20127;-81
2022/09/24 12:46:43;;;;;;;2.75;0.50;;;14.50;99.90;;;;;;5078182;28;20043;-82
2022/09/24 12:49:24;;;;;;;;;;;14.60;99.90;;;;;;5096229;28;20078;-78
2022/09/24 12:51:58;;;;;;;1.67;0.40;;;14.50;99.90;;;;;;5064431;28;20583;-80
2022/09/24 12:54:31;;;;;;;1.55;0.50;;;14.60;99.90;;;;;;5077205;28;20144;-81
2022/09/24 12:57:14;;;;;;;2.78;0.60;;;14.60;99.90;;;;;;5072579;28;20064;-85
2022/09/24 12:59:50;;;;;;;1.90;0.45;;;14.30;99.90;;;;;;5082628;28;20379;-81
2022/09/24 13:02:24;;;;;;;3.22;0.65;;;14.30;99.90;;;;;;5074893;28;20094;-82
2022/09/24 13:05:11;;;;;;;2.40;0.90;;;14.30;99.90;;;;;;5057604;28;20047;-79
2022/09/24 13:07:39;;;;;;;4.15;0.88;;;14.40;99.90;;;;;;5058227;28;22072;-81
2022/09/24 13:10:14;;;;;;;3.33;0.70;;;14.40;99.90;;;;;;5075170;28;20037;-81
2022/09/24 13:12:40;;;;;;;2.83;0.90;;;14.40;99.90;;;;;;5075638;28;20044;-81
2022/09/24 13:15:21;;;;;;;4.32;0.80;;;14.20;99.90;;;;;;5051843;28;20048;-80
2022/09/24 13:17:47;;;;;;;1.83;0.60;;;14.20;99.90;;;;;;5070917;28;20445;-79
2022/09/24 13:20:21;;;;;;;;;;;14.40;99.90;;;;;;5065607;28;20098;-81
2022/09/24 13:23:10;;;;;;;2.28;0.40;;;14.40;99.90;;;;;;5073968;28;19924;-80
2022/09/24 13:25:36;;;;;;;2.22;0.60;;;14.10;99.90;;;;;;5068928;28;20131;-80
2022/09/24 13:28:19;;;;;;;1.30;0.47;;;14.30;99.90;;;;;;5068896;28;20105;-79
2022/09/24 13:30:50;;;;;;;1.23;0.30;;;14.10;99.90;;;;;;5071288;28;20040;-80